Latest Weather Observations for Parafield

IDS60801

Issued at 5:01 am CST Wednesday 5 August 2015 (issued every 30 minutes, with the page automatically refreshed every 10 minutes)

About weather observations | Map of weather stations | Latest weather observations for SA | Other Formats
Station Details ID: 023013 Name: PARAFIELD AIRPORT Lat: -34.80 Lon: 138.63 Height: 9.5 m
Data from the previous 72 hours. | See also: Recent months at Parafield
Date/Time
CST
Temp
°C
App
Temp
°C
Dew
Point
Rel
Hum
%
Delta-T
°C
Wind Press
QNH
hPa
Press
MSL
hPa
Rain
since 9 am
mm
Dir
 
Spd
km/h
Gust
km/h
Spd
kts
Gust
kts
05/05:00am 10.2 5.0 9.0 92 0.6 W 26 39 14 21 1020.5 1020.6 2.4
05/04:30am 10.2 7.0 8.5 89 0.8 W 15 19 8 10 1020.6 1020.7 2.4
05/04:00am 9.9 5.9 8.2 89 0.8 W 19 24 10 13 1020.8 1020.9 2.4
05/03:30am 10.1 4.7 8.0 87 1.0 WSW 26 41 14 22 1020.8 1020.9 2.4
05/03:00am 10.5 6.8 8.1 85 1.2 WSW 17 24 9 13 1020.9 1021.0 2.2
05/02:30am 10.0 6.8 8.6 91 0.7 SW 15 20 8 11 1021.2 1021.3 2.2
05/02:00am 10.3 7.7 9.2 93 0.5 WSW 13 19 7 10 1021.4 1021.5 2.2
05/01:30am 10.8 7.2 9.7 93 0.6 WSW 19 26 10 14 1021.9 1021.9 2.2
05/01:19am 11.0 6.8 9.9 93 0.6 WSW 22 30 12 16 1021.8 1021.8 2.2
05/01:00am 11.0 6.9 10.1 94 0.5 WSW 22 32 12 17 1022.0 1022.0 2.2
05/12:43am 10.9 6.4 10.1 95 0.4 W 24 35 13 19 1022.1 1022.1 2.2
05/12:30am 11.0 6.5 10.2 95 0.4 W 24 32 13 17 1022.2 1022.2 2.2
05/12:23am 10.9 6.4 10.1 95 0.4 W 24 33 13 18 1022.4 1022.4 1.6
05/12:18am 11.0 6.1 10.1 94 0.5 W 26 35 14 19 1022.3 1022.3 1.4
05/12:00am 10.9 6.0 10.1 95 0.4 WNW 26 35 14 19 1022.5 1022.5 1.2
 
Date/Time
CST
Temp
°C
App
Temp
°C
Dew
Point
Rel
Hum
%
Delta-T
°C
Wind Press
QNH
hPa
Press
MSL
hPa
Rain
since 9 am
mm
Dir
 
Spd
km/h
Gust
km/h
Spd
kts
Gust
kts
04/11:30pm 10.9 7.1 9.8 93 0.6 WNW 20 28 11 15 1022.5 1022.5 0.8
04/11:08pm 11.0 6.4 9.6 91 0.7 WNW 24 32 13 17 1022.8 1022.8 0.4
04/11:05pm 11.1 7.2 9.5 90 0.8 WNW 20 30 11 16 1022.8 1022.8 0.4
04/11:00pm 11.1 7.2 9.5 90 0.8 WNW 20 30 11 16 1022.8 1022.8 0.4
04/10:30pm 11.1 7.4 9.4 89 0.8 NW 19 24 10 13 1023.1 1023.1 0.4
04/10:00pm 10.6 7.1 8.9 89 0.8 WNW 17 20 9 11 1023.7 1023.7 0.4
04/09:30pm 10.1 7.2 8.2 88 0.9 NW 13 19 7 10 1023.8 1023.8 0.4
04/09:00pm 10.2 7.0 8.3 88 0.9 WNW 15 20 8 11 1023.9 1023.9 0.4
04/08:30pm 10.8 6.7 8.7 87 1.0 W 20 28 11 15 1024.0 1024.0 0.4
04/08:00pm 10.9 7.0 8.5 85 1.2 WNW 19 24 10 13 1024.3 1024.3 0.4
04/07:30pm 10.8 8.0 8.4 85 1.2 WNW 13 17 7 9 1024.2 1024.2 0.4
04/07:00pm 10.7 8.3 8.6 87 1.0 WNW 11 15 6 8 1024.4 1024.4 0.4
04/06:30pm 10.6 8.2 8.7 88 0.9 W 11 15 6 8 1024.2 1024.2 0.4
04/06:00pm 10.3 8.3 8.6 89 0.8 W 9 15 5 8 1024.3 1024.3 0.4
04/05:30pm 10.5 8.5 8.8 89 0.8 WNW 9 11 5 6 1024.4 1024.4 0.4
04/05:00pm 10.6 8.7 9.0 90 0.8 WNW 9 11 5 6 1024.5 1024.5 0.4
04/04:30pm 10.7 8.4 9.0 89 0.8 WNW 11 15 6 8 1024.7 1024.7 0.4
04/04:00pm 11.0 7.9 8.9 87 1.0 WNW 15 20 8 11 1024.9 1024.9 0.4
04/03:30pm 10.9 8.2 8.8 87 1.0 WNW 13 17 7 9 1025.0 1025.0 0.4
04/03:02pm 10.8 7.9 9.6 92 0.6 WNW 15 19 8 10 1025.2 1025.2 0.4
04/03:00pm 10.6 7.6 9.4 92 0.6 WNW 15 19 8 10 1025.3 1025.3 0.4
04/02:54pm 10.7 7.8 9.6 93 0.6 WNW 15 20 8 11 1025.3 1025.3 0.4
04/02:31pm 10.5 7.1 9.3 92 0.6 W 17 24 9 13 1025.5 1025.5 0.2
04/02:30pm 10.2 6.7 8.8 91 0.7 W 17 24 9 13 1025.5 1025.5 0.2
04/02:25pm 10.6 7.2 9.2 91 0.7 W 17 20 9 11 1025.5 1025.5 0.2
04/02:02pm 9.8 5.1 7.7 87 1.0 WSW 22 30 12 16 1025.6 1025.6 0.0
04/02:00pm 10.2 5.5 7.6 84 1.2 WSW 22 30 12 16 1025.6 1025.6 0.0
04/01:30pm 12.2 8.6 6.7 69 2.6 W 15 22 8 12 1025.7 1025.7 0.0
04/01:00pm 12.2 7.9 7.1 71 2.5 W 19 24 10 13 1026.3 1026.3 0.0
04/12:30pm 12.0 8.1 7.1 72 2.3 W 17 24 9 13 1026.5 1026.5 0.0
04/12:00pm 12.2 8.5 8.1 76 2.0 W 17 22 9 12 1027.0 1027.0 0.0
04/11:36am 11.7 7.7 8.2 79 1.7 W 19 28 10 15 1027.4 1027.4 0.0
04/11:30am 11.4 7.6 7.5 77 1.9 W 17 22 9 12 1027.5 1027.5 0.0
04/11:00am 10.5 8.7 8.1 85 1.2 SE 7 11 4 6 1027.8 1027.8 0.0
04/10:36am 10.6 9.3 7.8 83 1.4 NW 4 11 2 6 1027.9 1027.9 0.0
04/10:30am 10.8 9.1 8.4 85 1.2 N 7 11 4 6 1028.0 1028.0 0.0
04/10:00am 9.7 7.2 8.0 89 0.8 NNE 11 13 6 7 1028.1 1028.1 0.0
04/09:50am 8.8 5.7 7.3 90 0.7 N 13 15 7 8 1028.2 1028.2 0.0
04/09:30am 8.2 5.0 7.0 92 0.6 N 13 15 7 8 1028.2 1028.2 0.0
04/09:17am 8.0 5.2 6.8 92 0.6 N 11 15 6 8 1028.3 1028.3 0.0
04/09:00am 8.6 5.5 7.4 92 0.6 NNE 13 15 7 8 1028.1 1028.1 1.2
04/08:30am 7.4 3.8 6.8 96 0.3 N 15 20 8 11 1027.9 1027.9 1.2
04/08:00am 6.9 4.8 6.6 98 0.1 NNE 7 9 4 5 1027.7 1027.7 1.2
04/07:30am 5.4 2.2 5.0 97 0.2 N 11 13 6 7 1027.4 1027.4 1.2
04/07:00am 6.2 4.1 5.9 98 0.1 ENE 6 9 3 5 1027.3 1027.3 1.2
04/06:30am 5.7 3.9 5.3 97 0.2 NE 4 7 2 4 1027.4 1027.4 1.0
04/06:00am 5.5 2.7 5.1 97 0.2 NE 9 11 5 6 1027.1 1027.1 1.0
04/05:30am 5.7 3.3 5.3 97 0.2 E 7 11 4 6 1027.2 1027.2 1.0
04/05:20am 5.4 2.6 5.0 97 0.2 NNE 9 11 5 6 1027.1 1027.1 1.0
04/05:00am 4.7 3.4 4.3 97 0.2 CALM 0 6 0 3 1027.1 1027.1 1.0
04/04:30am 5.2 2.3 4.8 97 0.2 NNE 9 9 5 5 1027.0 1027.0 1.0
04/04:00am 6.4 4.2 6.0 97 0.2 E 7 9 4 5 1026.9 1026.9 1.0
04/03:30am 6.4 4.3 6.0 97 0.2 NNE 6 7 3 4 1027.0 1027.0 1.0
04/03:00am 5.9 3.5 5.3 96 0.3 NNE 7 9 4 5 1027.2 1027.2 1.0
04/02:30am 6.1 3.4 5.5 96 0.3 N 9 11 5 6 1027.3 1027.3 1.0
04/02:05am 7.2 6.5 6.8 97 0.2 CALM 0 0 0 0 1027.4 1027.4 1.0
04/02:00am 7.3 6.2 6.9 97 0.2 SSE 2 7 1 4 1027.5 1027.5 1.0
04/01:35am 7.2 4.8 6.8 97 0.2 ESE 9 17 5 9 1027.6 1027.6 0.4
04/01:30am 7.2 5.3 6.8 97 0.2 ENE 6 9 3 5 1027.5 1027.5 0.4
04/01:00am 6.8 4.8 6.4 97 0.2 NNE 6 6 3 3 1027.5 1027.5 0.0
04/12:48am 6.3 4.0 5.7 96 0.3 NE 7 9 4 5 1027.5 1027.5 0.0
04/12:30am 5.7 4.2 5.1 96 0.3 N 2 9 1 5 1027.5 1027.5 0.0
04/12:00am 6.4 5.4 5.7 95 0.3 CALM 0 0 0 0 1027.6 1027.6 0.0
 
Date/Time
CST
Temp
°C
App
Temp
°C
Dew
Point
Rel
Hum
%
Delta-T
°C
Wind Press
QNH
hPa
Press
MSL
hPa
Rain
since 9 am
mm
Dir
 
Spd
km/h
Gust
km/h
Spd
kts
Gust
kts
03/11:58pm 6.3 5.3 5.6 95 0.3 CALM 0 0 0 0 1027.6 1027.6 0.0
03/11:30pm 7.3 6.1 6.4 94 0.4 SE 2 6 1 3 1027.6 1027.6 0.0
03/11:00pm 7.2 5.6 6.5 95 0.3 SE 4 11 2 6 1027.6 1027.6 0.0
03/10:30pm 7.1 6.2 6.0 93 0.5 CALM 0 0 0 0 1027.6 1027.6 0.0
03/10:00pm 8.1 7.3 6.6 90 0.7 CALM 0 0 0 0 1027.7 1027.7 0.0
03/09:30pm 8.0 6.1 6.6 91 0.6 SSE 6 15 3 8 1027.8 1027.8 0.0
03/09:00pm 7.9 5.7 6.0 88 0.9 SE 7 7 4 4 1027.7 1027.7 0.0
03/08:30pm 8.8 6.7 6.8 87 0.9 S 7 9 4 5 1027.6 1027.6 0.0
03/08:00pm 9.3 7.0 7.4 88 0.9 SSW 9 13 5 7 1027.4 1027.4 0.0
03/07:30pm 9.2 6.4 7.0 86 1.0 SW 11 17 6 9 1027.3 1027.3 0.0
03/07:00pm 9.0 5.6 6.1 82 1.3 SW 13 15 7 8 1027.0 1027.0 0.0
03/06:30pm 9.7 6.3 7.6 87 1.0 WSW 15 17 8 9 1026.8 1026.8 0.0
03/06:00pm 10.0 6.8 6.9 81 1.4 SW 13 17 7 9 1026.5 1026.5 0.0
03/05:30pm 10.4 6.3 6.4 76 1.9 SW 17 20 9 11 1026.5 1026.5 0.0
03/05:00pm 10.6 6.5 6.4 75 2.0 SW 17 22 9 12 1026.3 1026.3 0.0
03/04:30pm 11.1 7.1 6.5 73 2.2 SW 17 22 9 12 1026.2 1026.2 0.0
03/04:00pm 12.4 7.6 7.5 72 2.4 SW 22 30 12 16 1026.0 1026.0 0.0
03/03:30pm 12.3 7.4 7.0 70 2.5 SW 22 30 12 16 1025.7 1025.7 0.0
03/03:00pm 12.9 7.5 6.3 64 3.1 SW 24 32 13 17 1025.3 1025.3 0.0
03/02:30pm 12.9 7.7 5.6 61 3.4 SW 22 33 12 18 1025.1 1025.1 0.0
03/02:00pm 11.7 5.8 7.4 75 2.1 SW 28 39 15 21 1025.1 1025.1 0.0
03/01:30pm 13.4 8.6 7.2 66 3.0 SW 22 32 12 17 1025.1 1025.1 0.0
03/01:00pm 13.4 8.1 6.7 64 3.2 SW 24 35 13 19 1025.4 1025.4 0.0
03/12:30pm 12.7 6.7 7.0 68 2.7 SW 28 35 15 19 1025.5 1025.5 0.0
03/12:00pm 13.6 7.7 7.6 67 2.9 SW 28 39 15 21 1025.7 1025.7 0.0
03/11:30am 13.3 7.6 6.9 65 3.1 SW 26 35 14 19 1025.8 1025.8 0.0
03/11:00am 12.3 7.2 7.6 73 2.3 SW 24 35 13 19 1025.9 1025.9 0.0
03/10:30am 11.9 6.8 7.8 76 2.0 SW 24 32 13 17 1025.9 1025.9 0.0
03/10:00am 12.3 6.9 8.0 75 2.1 SW 26 35 14 19 1025.6 1025.6 0.0
03/09:30am 12.0 6.6 8.1 77 1.9 SW 26 35 14 19 1025.5 1025.5 0.0
03/09:00am 11.8 7.6 8.1 78 1.8 SW 20 28 11 15 1025.2 1025.2 2.6
03/08:30am 11.4 7.2 8.3 81 1.5 SW 20 28 11 15 1024.8 1024.8 2.6
03/08:00am 10.7 7.1 8.5 86 1.1 SW 17 26 9 14 1024.5 1024.5 2.6
03/07:30am 10.5 5.6 8.4 87 1.0 SW 24 35 13 19 1024.3 1024.3 2.4
03/07:00am 10.8 6.5 8.0 83 1.4 WSW 20 30 11 16 1023.7 1023.7 2.4
03/06:30am 9.8 6.1 7.9 88 0.9 WSW 17 24 9 13 1023.5 1023.5 2.4
03/06:04am 10.0 5.5 8.6 91 0.7 WSW 22 33 12 18 1023.4 1023.4 2.2
03/06:00am 10.0 4.4 8.6 91 0.7 WSW 28 44 15 24 1023.3 1023.3 2.2
03/05:52am 10.2 4.5 8.5 89 0.8 WSW 28 54 15 29 1023.3 1023.3 2.2
03/05:51am 10.2 4.9 8.5 89 0.8 WSW 26 54 14 29 1023.3 1023.3 2.2
03/05:30am 10.7 6.6 8.5 86 1.1 W 20 28 11 15 1023.0 1023.0 2.0
03/05:00am 10.5 7.2 8.1 85 1.2 W 15 17 8 9 1022.9 1022.9 2.0
03/04:30am 10.4 7.7 9.0 91 0.7 WSW 13 15 7 8 1022.9 1022.9 2.0
03/04:00am 10.2 5.8 8.8 91 0.7 SW 22 35 12 19 1022.6 1022.6 2.0
03/03:53am 10.3 4.4 8.9 91 0.7 WSW 30 37 16 20 1022.6 1022.6 2.0
03/03:40am 10.2 4.7 9.0 92 0.6 WSW 28 52 15 28 1022.7 1022.7 2.0
03/03:37am 10.3 5.5 8.9 91 0.7 WSW 24 52 13 28 1022.7 1022.7 2.0
03/03:30am 10.2 6.7 8.8 91 0.7 WSW 17 22 9 12 1022.8 1022.8 1.6
03/03:21am 9.8 6.2 8.4 91 0.7 WSW 17 24 9 13 1022.8 1022.8 1.6
03/03:16am 9.9 5.8 8.7 92 0.6 WSW 20 32 11 17 1022.8 1022.8 1.6
03/03:03am 10.4 4.5 9.2 92 0.6 WSW 30 48 16 26 1022.9 1022.9 1.4
03/03:02am 10.4 4.9 9.2 92 0.6 WSW 28 48 15 26 1022.8 1022.8 1.4
03/03:00am 10.6 5.6 9.4 92 0.6 WSW 26 48 14 26 1022.8 1022.8 1.4
03/02:50am 10.8 6.2 9.6 92 0.6 WSW 24 35 13 19 1022.7 1022.7 0.8
03/02:31am 10.8 5.0 9.4 91 0.7 WSW 30 44 16 24 1022.7 1022.7 0.6
03/02:30am 10.9 5.1 9.3 90 0.8 WSW 30 44 16 24 1022.7 1022.7 0.6
03/02:20am 11.0 6.3 9.1 88 0.9 WSW 24 32 13 17 1022.5 1022.5 0.4
03/02:07am 10.8 5.4 9.6 92 0.6 W 28 37 15 20 1022.5 1022.5 0.4
03/02:00am 10.9 5.9 9.7 92 0.6 WSW 26 35 14 19 1022.7 1022.7 0.4
03/01:48am 11.1 7.2 9.5 90 0.8 W 20 35 11 19 1022.8 1022.8 0.4
03/01:47am 11.2 7.5 9.5 89 0.9 W 19 28 10 15 1022.8 1022.8 0.4
03/01:30am 11.0 7.6 9.1 88 0.9 WNW 17 20 9 11 1022.6 1022.6 0.2
03/01:00am 11.4 7.0 9.0 85 1.2 W 22 30 12 16 1022.5 1022.5 0.2
03/12:30am 11.6 7.6 9.0 84 1.3 W 20 26 11 14 1022.6 1022.6 0.2
03/12:16am 11.5 7.5 9.1 85 1.2 WSW 20 33 11 18 1022.8 1022.8 0.2
03/12:01am 11.4 7.0 9.1 86 1.1 SW 22 30 12 16 1022.9 1022.9 0.2
03/12:00am 11.4 7.0 9.1 86 1.1 WSW 22 30 12 16 1022.9 1022.9 0.2
 
Date/Time
CST
Temp
°C
App
Temp
°C
Dew
Point
Rel
Hum
%
Delta-T
°C
Wind Press
QNH
hPa
Press
MSL
hPa
Rain
since 9 am
mm
Dir
 
Spd
km/h
Gust
km/h
Spd
kts
Gust
kts
02/11:30pm 11.6 7.8 9.0 84 1.3 W 19 24 10 13 1022.8 1022.8 0.2
02/11:00pm 10.7 7.5 8.6 87 1.0 WNW 15 20 8 11 1022.6 1022.6 0.2
02/10:30pm 10.8 6.7 8.0 83 1.4 WNW 19 24 10 13 1022.7 1022.7 0.2
02/10:00pm 11.1 6.9 8.1 82 1.5 W 20 26 11 14 1022.7 1022.7 0.2
02/09:30pm 11.4 7.2 8.3 81 1.5 W 20 30 11 16 1022.7 1022.7 0.2
02/09:00pm 11.6 7.7 8.6 82 1.5 W 19 24 10 13 1022.7 1022.7 0.2
02/08:30pm 11.2 7.2 8.9 86 1.1 WSW 20 26 11 14 1022.6 1022.6 0.2
02/08:00pm 11.0 7.2 8.9 87 1.0 W 19 24 10 13 1022.3 1022.3 0.2
02/07:34pm 11.5 7.3 9.8 89 0.9 W 22 30 12 16 1022.0 1022.0 0.2
02/07:30pm 11.5 7.7 9.8 89 0.9 W 20 30 11 16 1022.0 1022.0 0.2
02/07:22pm 11.6 7.4 9.9 89 0.9 W 22 32 12 17 1022.0 1022.0 0.2
02/07:00pm 11.6 9.1 9.7 88 1.0 W 13 17 7 9 1021.8 1021.8 0.0
02/06:30pm 11.2 7.4 8.9 86 1.1 W 19 24 10 13 1021.4 1021.5 0.0
02/06:00pm 11.3 7.4 9.4 88 1.0 WSW 20 28 11 15 1021.0 1021.1 0.0
02/05:30pm 11.7 8.0 9.6 87 1.1 W 19 26 10 14 1020.8 1020.9 0.0
02/05:00pm 12.7 8.6 8.8 77 2.0 W 20 26 11 14 1020.5 1020.6 0.0
02/04:30pm 13.3 8.5 9.0 75 2.2 W 24 37 13 20 1020.3 1020.4 0.0
02/04:00pm 13.2 8.0 8.9 75 2.2 W 26 35 14 19 1020.2 1020.3 0.0
02/03:30pm 13.6 8.4 8.9 73 2.4 W 26 35 14 19 1020.3 1020.4 0.0
02/03:00pm 13.6 8.0 8.7 72 2.5 W 28 37 15 20 1019.9 1020.0 0.0
02/02:30pm 13.3 7.6 8.4 72 2.4 W 28 37 15 20 1019.7 1019.8 0.0
02/02:00pm 14.2 9.3 8.6 69 2.8 W 24 35 13 19 1019.7 1019.8 0.0
02/01:30pm 14.4 9.2 9.0 70 2.7 W 26 35 14 19 1019.8 1019.9 0.0
02/01:00pm 14.0 7.8 8.0 67 3.0 W 30 39 16 21 1019.9 1020.0 0.0
02/12:30pm 13.2 7.0 7.9 70 2.6 W 30 39 16 21 1020.2 1020.3 0.0
02/12:00pm 13.6 7.9 8.2 70 2.7 WNW 28 39 15 21 1020.4 1020.5 0.0
02/11:30am 13.0 6.9 8.1 72 2.4 W 30 41 16 22 1020.7 1020.8 0.0
02/11:00am 12.6 6.7 7.5 71 2.5 W 28 37 15 20 1020.7 1020.8 0.0
02/10:30am 12.6 6.8 7.9 73 2.3 W 28 39 15 21 1020.7 1020.8 0.0
02/10:00am 12.0 6.4 7.1 72 2.4 W 26 37 14 20 1020.7 1020.8 0.0
02/09:30am 11.9 6.6 6.8 71 2.4 W 24 32 13 17 1020.4 1020.5 0.0
02/09:00am 11.1 7.6 7.4 78 1.8 W 15 20 8 11 1020.1 1020.2 10.2
02/08:30am 10.0 7.7 7.3 83 1.3 WNW 9 13 5 7 1020.0 1020.1 10.2
02/08:00am 8.9 6.0 6.5 85 1.1 WSW 11 13 6 7 1020.0 1020.1 10.2
02/07:30am 9.2 5.5 6.3 82 1.3 WSW 15 20 8 11 1019.6 1019.7 10.2
02/07:00am 8.9 7.1 8.0 94 0.4 WNW 7 13 4 7 1019.3 1019.4 10.2
02/06:30am 8.4 6.7 7.6 95 0.4 W 6 9 3 5 1018.9 1019.0 10.2
02/06:00am 8.1 6.2 7.7 97 0.2 W 7 9 4 5 1018.6 1018.7 10.2
02/05:30am 7.8 5.5 7.4 97 0.2 NE 9 11 5 6 1018.3 1018.4 10.0

Other Formats:

Comma delimited format used in spreadsheet applications
http://www.bom.gov.au/fwo/IDS60801/IDS60801.95677.axf

JavaScript Object Notation format (JSON) in row-major order
http://www.bom.gov.au/fwo/IDS60801/IDS60801.95677.json